Rogers Spring, Nevada Weather observations

Data are for 10 minute period ending at time listed.
 Day   Time   Solar   Ave.   Ave.  Ave.  Vector  Max.   Baro.   Total    
  of    of     Rad.   Air    Rel.  Wind   Wind   Wind  Press.  Precip.   
Year   Day            Temp.  Hum.  Speed  Dir.   Gust                    
2016   (PST)  Kw/m2    F      %     mph   deg.    mph    mb.     in.     
-------------------------------------------------------------------------
 122    8:50   0.57   68.3    32    7.8    23    12.3   932.0    0.00 
 122    9:00   0.63   68.4    32    8.5    22    13.7   932.0    0.00 
 122    9:10   0.60   69.0    31    8.0    27    13.7   932.1    0.00 
 122    9:20   0.47   69.2    31    7.3    26    12.8   932.2    0.00 
 122    9:30   0.41   69.9    30    7.6    39    12.6   932.1    0.00 
 122    9:40   0.67   70.1    31    7.4    25    17.4   932.1    0.00 
 122    9:50   0.51   70.3    30    7.4    21    13.7   932.1    0.00 
 122   10:00   0.70   70.9    30    8.1    14    12.4   932.0    0.00 
 122   10:10   0.59   70.8    29    7.5    31    12.6   932.0    0.00 
 122   10:20   0.59   71.7    28    7.1    40    12.9   932.0    0.00 
 122   10:30   0.47   71.7    27    5.1    41    10.9   932.0    0.00 
 122   10:40   0.52   71.8    27    5.5    33    10.7   932.0    0.00 
 122   10:50   0.65   72.2    27    6.2    42    11.3   931.9    0.00 
 122   11:00   0.81   72.5    26    4.5    39    10.9   931.8    0.00 
 122   11:10   0.82   73.2    26    6.1    38    10.6   931.7    0.00 
 122   11:20   0.69   72.8    26    3.3    21     8.6   931.6    0.00 
 122   11:30   0.75   73.5    25    5.1    22    10.7   931.6    0.00 
 122   11:40   0.72   74.0    25    5.6    32    11.2   931.6    0.00 
 122   11:50   0.82   73.6    25    3.7   318     9.2   931.5    0.00 
 122   12:00   0.74   74.5    24    5.8   334     9.9   931.4    0.00 
 122   12:10   0.71   74.3    24    3.3   358     5.8   931.4    0.00 
 122   12:20   0.69   74.9    24    5.9    46    10.2   931.4    0.00 
 122   12:30   0.77   74.8    23    5.0    18     9.0   931.3    0.00 
 122   12:40   0.74   75.3    22    2.6    83     8.1   931.2    0.00 
 122   12:50   0.73   76.9    22    3.6   119     9.3   931.1    0.00 
 122   13:00   0.81   76.4    21    3.3   313     8.9   931.0    0.00 
 122   13:10   0.82   75.8    21    3.5   218     9.0   931.0    0.00 
 122   13:20   0.76   76.2    22    3.3   353     9.0   931.0    0.00 
 122   13:30   0.21   74.4    22    2.6   320     6.4   931.0    0.00 
 122   13:40   0.32   73.6    24    3.0   300     8.8   930.9    0.00 
 122   13:50   0.79   76.6    22    3.8   354     9.0   930.9    0.00 
 122   14:00   0.79   77.4    21    3.2   296     7.4   930.9    0.00 
 122   14:10   0.76   76.9    21    4.7   330    10.2   930.7    0.00 
 122   14:20   0.73   77.8    21    4.2   294     8.7   930.7    0.00 
 122   14:30   0.71   77.4    21    4.2   296     8.9   930.5    0.00 
 122   14:40   0.68   77.8    20    4.4   292     8.5   930.4    0.00 
 122   14:50   0.64   78.3    19    3.0   293     7.4   930.4    0.00 
 122   15:00   0.60   76.5    19    3.3    16     7.7   930.3    0.00 
 122   15:10   0.57   76.9    19    3.9   306     8.7   930.1    0.00 
 122   15:20   0.55   76.8    20    3.7   343     6.1   930.1    0.00 
 122   15:30   0.52   77.6    19    3.1   238    10.7   930.0    0.00 
 122   15:40   0.49   78.2    19    4.2   178     8.0   930.0    0.00 
 122   15:50   0.46   78.5    19    4.2   213     7.8   930.1    0.00 
 122   16:00   0.43   77.8    18    2.5   233     5.4   930.1    0.00 
 122   16:10   0.40   77.3    18    2.9   284     5.8   930.1    0.00 
 122   16:20   0.37   77.6    18    2.6   223     5.3   930.2    0.00 
 122   16:30   0.34   77.7    17    2.1   267     4.7   930.3    0.00 
 122   16:40   0.31   77.6    17    2.2   181     6.3   930.3    0.00 
 122   16:50   0.28   77.2    18    2.5   221     6.2   930.4    0.00 
 122   17:00   0.26   77.3    18    3.7   213     6.9   930.3    0.00 
 122   17:10   0.23   76.8    18    3.3   230     7.6   930.4    0.00 
 122   17:20   0.21   76.9    18    2.4   265     5.4   930.4    0.00 
 122   17:30   0.18   77.0    17    1.6   250     4.4   930.5    0.00 
 122   17:40   0.10   75.4    21    3.8   143     9.5   930.5    0.00 
 122   17:50   0.08   73.3    24    2.9   144     6.1   930.6    0.00 
 122   18:00   0.03   72.7    24    2.5   101     5.2   930.8    0.00 
 122   18:10   0.02   71.3    25    2.6    84     6.6   931.0    0.00 
 122   18:20   0.01   70.4    26    3.6    76     8.0   931.1    0.00 
 122   18:30   0.01   70.3    27    5.2    82    10.4   931.4    0.00 
 122   18:40   0.00   69.5    29    6.3    89    13.1   931.6    0.00 
 122   18:50   0.00   69.0    29    6.5   101    11.8   931.8    0.00 
 122   19:00   0.00   68.7    29    5.4   107    11.0   931.9    0.00 
 122   19:10   0.00   67.9    31    4.8   112     9.9   932.0    0.00 
 122   19:20   0.00   67.1    32    4.2   117     9.1   932.1    0.00 
 122   19:30   0.00   67.6    30    4.7   118    13.8   932.2    0.00 
 122   19:40   0.00   67.6    30    3.9   103     8.8   932.3    0.00 
 122   19:50   0.00   66.9    30    3.2   116     7.2   932.5    0.00 
 122   20:00   0.00   68.0    28    4.2   123     8.2   932.6    0.00 
 122   20:10   0.00   68.7    27    4.2   119     9.3   932.8    0.00 
 122   20:20   0.00   68.1    28    2.5   128     6.0   932.9    0.00 
 122   20:30   0.00   67.1    29    2.1   132     4.0   933.0    0.00 
 122   20:40   0.00   65.5    31    1.7   142     2.7   933.0    0.00 
 122   20:50   0.00   63.1    36    2.1   146     3.1   932.9    0.00 
 122   21:00   0.00   63.0    36    2.0   129     3.5   932.9    0.00 
 122   21:10   0.00   63.0    35    2.1   106     5.3   933.0    0.00 
 122   21:20   0.00   64.9    32    3.4   137     8.7   933.0    0.00 
 122   21:30   0.00   66.5    31    4.0   144     7.6   933.0    0.00 
 122   21:40   0.00   66.4    31    4.0   145     9.4   933.0    0.00 
 122   21:50   0.00   66.3    31    4.0   142     8.3   933.1    0.00 
 122   22:00   0.00   66.4    31    3.3   154     6.4   933.1    0.00 
 122   22:10   0.00   65.5    32    2.6   167     7.5   933.2    0.00 
 122   22:20   0.00   61.6    42    3.0   283     4.9   933.3    0.00 
 122   22:30   0.00   59.8    45    1.8   312     3.3   933.3    0.00 
 122   22:40   0.00   58.5    48    3.2   281     7.9   933.4    0.00 
 122   22:50   0.00   59.6    46    1.5   150     5.2   933.5    0.00 
 122   23:00   0.00   60.1    45    2.0    58     4.0   933.4    0.00 
 122   23:10   0.00   59.7    46    1.9    74     3.7   933.4    0.00 
 122   23:20   0.00   59.9    46    1.9    78     3.7   933.4    0.00 
 122   23:30   0.00   58.3    49    2.6    76     5.8   933.3    0.00 
 122   23:40   0.00   57.6    51    3.5    59     5.3   933.4    0.00 
 122   23:50   0.00   57.0    53    2.1    60     3.1   933.4    0.00 
 123    0:00   0.00   55.5    57    2.8    46     3.4   933.5    0.00 
 123    0:10   0.00   54.4    59    2.3    54     3.7   933.6    0.00 
 123    0:20   0.00   53.7    62    3.9    51     5.0   933.6    0.00 
 123    0:30   0.00   54.2    62    3.5    58     4.7   933.5    0.00 
 123    0:40   0.00   53.5    64    3.1    56     4.4   933.5    0.00 
 123    0:50   0.00   53.6    66    3.4    58     4.5   933.4    0.00 
 123    1:00   0.00   53.6    66    4.2    51     5.5   933.4    0.00 
 123    1:10   0.00   55.5    62    4.6    71     8.5   933.4    0.00 
 123    1:20   0.00   57.2    57    4.5    79     7.2   933.5    0.00 
 123    1:30   0.00   56.4    60    3.7    55     4.9   933.6    0.00 
 123    1:40   0.00   54.9    64    3.3    53     4.5   933.6    0.00 
 123    1:50   0.00   54.0    66    2.2   338     4.7   933.7    0.00 
 123    2:00   0.00   52.9    69    1.9   330     3.4   933.8    0.00 
 123    2:10   0.00   52.5    72    2.3   357     3.3   933.8    0.00 
 123    2:20   0.00   53.2    70    1.5    37     2.0   933.8    0.00 
 123    2:30   0.00   53.2    69    1.5    45     2.3   933.9    0.00 
 123    2:40   0.00   51.3    73    0.7   304     2.8   933.9    0.00 
 123    2:50   0.00   50.7    74    1.2   322     2.9   934.0    0.00 
 123    3:00   0.00   50.6    74    0.8   284     3.5   934.0    0.00 
 123    3:10   0.00   50.6    72    0.9   216     2.7   934.1    0.00 
 123    3:20   0.00   50.5    72    0.7   208     1.7   934.2    0.00 
 123    3:30   0.00   51.0    70    0.4   227     1.5   934.2    0.00 
 123    3:40   0.00   51.2    70    0.0     0     0.0   934.2    0.00 
 123    3:50   0.00   50.5    72    1.0   179     2.3   934.3    0.00 
 123    4:00   0.00   50.7    72    2.2   153     2.8   934.4    0.00 
 123    4:10   0.00   52.0    68    1.8   164     2.5   934.5    0.00 
 123    4:20   0.00   51.7    70    2.1   193     4.2   934.7    0.00 
 123    4:30   0.00   52.4    68    2.2   190     3.7   935.0    0.00 
 123    4:40   0.00   53.1    67    1.8   184     3.7   935.2    0.00 
 123    4:50   0.00   53.4    67    1.6   166     2.6   935.3    0.00 
 123    5:00   0.00   53.7    66    1.9   180     3.8   935.5    0.00 
 123    5:10   0.01   54.5    64    2.1   210     4.6   935.6    0.00 
 123    5:20   0.02   55.8    61    1.0   220     2.6   935.8    0.00 
 123    5:30   0.00   56.1    63    3.4    15     6.9   936.1    0.00 
 123    5:40   0.00   55.5    66    1.8    38     3.7   936.3    0.00 
 123    5:50   0.00   55.6    67    1.2   116     2.4   936.4    0.00 
 123    6:00   0.00   55.7    67    1.1   142     2.3   936.4    0.00 
 123    6:10   0.00   56.1    68    1.6   243     3.4   936.6    0.00 
 123    6:20   0.00   56.2    68    2.3   237     4.5   936.7    0.00 
 123    6:30   0.00   56.7    66    2.4   207     4.8   936.9    0.00 
 123    6:40   0.07   57.3    66    0.6   242     2.3   937.0    0.00 
 123    6:50   0.08   58.1    65    1.0   149     2.0   937.1    0.00 
 123    7:00   0.09   58.9    62    0.7   282     2.0   937.2    0.00 
 123    7:10   0.10   60.0    60    1.5     9     5.3   937.4    0.00 
 123    7:20   0.11   59.8    61    2.1   117     5.0   937.5    0.00 
 123    7:30   0.11   60.6    58    1.8    92     2.7   937.7    0.00 
 123    7:40   0.13   61.2    56    1.4    82     2.6   937.7    0.00 
 123    7:50   0.16   62.0    53    2.1    48     3.2   937.7    0.00 
 123    8:00   0.22   62.9    52    2.5    40     3.9   937.8    0.00 
 123    8:10   0.26   64.3    48    2.9    41     4.6   937.9    0.00 
 123    8:20   0.05   65.0    46    2.3    68     4.8   938.2    0.00 
 123    8:30   0.20   66.7    44    1.6   128     2.9   938.3    0.00 
 123    8:40   0.30   67.4    42    4.2   179    10.4   938.5    0.00 

Return to Rogers Spring graphs page.


Western Regional Climate Center,wrcc@dri.edu